createdAt,value
2022-09-12T00:02:14.868Z,57.31
2022-09-12T00:07:17.714Z,60.93
2022-09-12T00:12:20.323Z,65.07
2022-09-12T00:17:23.022Z,63.75
2022-09-12T00:22:25.596Z,60.86
2022-09-12T00:27:28.428Z,59.37
2022-09-12T00:32:31.161Z,59.76
2022-09-12T00:37:34.488Z,66.28
2022-09-12T00:42:37.641Z,63.54
2022-09-12T00:47:40.598Z,61.76
2022-09-12T00:52:49.293Z,61.66
2022-09-12T00:57:57.936Z,60.68
2022-09-12T01:03:02.443Z,61.13
2022-09-12T01:08:05.700Z,60.82
2022-09-12T01:13:09.857Z,58.56
2022-09-12T01:18:19.086Z,59.57
2022-09-12T01:23:40.617Z,66.53
2022-09-12T01:28:55.569Z,63.32
2022-09-12T01:33:58.610Z,61.51
2022-09-12T01:39:03.826Z,59.13
2022-09-12T01:44:09.432Z,59.61
2022-09-12T01:49:23.541Z,66.02
2022-09-12T01:54:31.942Z,63.63
2022-09-12T01:59:39.089Z,62.76
2022-09-12T02:04:44.911Z,60.82
2022-09-12T02:09:51.196Z,56.67
2022-09-12T02:14:57.478Z,58.94
2022-09-12T02:20:07.036Z,65.94
2022-09-12T02:25:12.054Z,63.25
2022-09-12T02:30:16.675Z,60.62
2022-09-12T02:35:25.080Z,59.00
2022-09-12T02:40:28.314Z,65.31
2022-09-12T02:45:34.405Z,65.26
2022-09-12T02:50:37.557Z,63.69
2022-09-12T02:55:42.016Z,63.37
2022-09-12T03:00:51.990Z,60.71
2022-09-12T03:06:02.821Z,58.33
2022-09-12T03:11:24.633Z,61.30
2022-09-12T03:16:31.835Z,67.04
2022-09-12T03:21:45.598Z,63.87
2022-09-12T03:26:50.945Z,62.19
2022-09-12T03:31:58.191Z,61.18
2022-09-12T03:37:01.065Z,60.71
2022-09-12T03:42:03.681Z,58.20
2022-09-12T03:47:11.030Z,59.96
2022-09-12T03:52:13.961Z,65.83
2022-09-12T03:57:16.973Z,67.79
2022-09-12T04:02:19.708Z,64.92
2022-09-12T04:07:22.413Z,62.50
2022-09-12T04:12:25.469Z,61.35
2022-09-12T04:17:28.268Z,59.74
2022-09-12T04:22:32.111Z,58.49
2022-09-12T04:27:34.649Z,64.88
2022-09-12T04:32:38.162Z,64.80
2022-09-12T04:37:40.900Z,62.62
2022-09-12T04:42:43.521Z,60.73
2022-09-12T04:47:46.857Z,58.52
2022-09-12T04:52:50.866Z,59.32
2022-09-12T04:57:53.444Z,65.04
2022-09-12T05:02:55.980Z,65.10
2022-09-12T05:07:58.658Z,61.40
2022-09-12T05:13:01.259Z,60.69
2022-09-12T05:18:03.865Z,57.47
2022-09-12T05:23:06.550Z,57.62
2022-09-12T05:28:09.096Z,60.47
2022-09-12T05:33:11.850Z,64.34
2022-09-12T05:38:14.445Z,68.87
2022-09-12T05:43:17.333Z,63.52
2022-09-12T05:48:19.947Z,60.69
2022-09-12T05:53:22.749Z,56.47
2022-09-12T05:58:25.544Z,60.20
2022-09-12T06:03:28.150Z,64.40
2022-09-12T06:08:31.950Z,59.76
2022-09-12T06:13:37.002Z,59.81
2022-09-12T06:18:40.479Z,63.64
2022-09-12T06:23:44.487Z,58.80
2022-09-12T06:28:47.645Z,60.16
2022-09-12T06:33:52.025Z,62.67
2022-09-12T06:38:57.234Z,57.51
2022-09-12T06:44:00.398Z,60.12
2022-09-12T06:49:03.605Z,63.10
2022-09-12T06:54:06.316Z,58.12
2022-09-12T06:59:09.004Z,59.19
2022-09-12T07:04:12.111Z,62.27
2022-09-12T07:09:17.887Z,59.77
2022-09-12T07:14:20.485Z,58.25
2022-09-12T07:19:24.846Z,60.26
2022-09-12T07:24:27.441Z,61.60
2022-09-12T07:29:37.025Z,62.15
2022-09-12T07:34:40.785Z,60.50
2022-09-12T07:39:43.535Z,55.82
2022-09-12T07:44:46.206Z,57.60
2022-09-12T07:49:48.834Z,57.06
2022-09-12T07:54:51.688Z,58.13
2022-09-12T07:59:54.337Z,58.43
2022-09-12T08:04:57.803Z,59.12
2022-09-12T08:10:00.633Z,59.84
2022-09-12T08:15:03.425Z,60.36
2022-09-12T08:20:06.938Z,60.91
2022-09-12T08:25:10.153Z,60.73
2022-09-12T08:30:13.364Z,59.78
2022-09-12T08:35:16.059Z,59.10
2022-09-12T08:40:19.161Z,58.86
2022-09-12T08:45:27.361Z,59.16
2022-09-12T08:50:30.306Z,58.65
2022-09-12T08:55:46.725Z,58.96
2022-09-12T09:01:02.331Z,59.46
2022-09-12T09:06:07.685Z,59.48
2022-09-12T09:11:39.679Z,59.91
2022-09-12T09:16:43.974Z,60.12
2022-09-12T09:21:59.307Z,60.78
2022-09-12T09:27:14.304Z,59.97
2022-09-12T09:32:28.590Z,59.73
2022-09-12T09:37:38.024Z,57.04
2022-09-12T09:42:44.513Z,54.19
2022-09-12T09:47:49.869Z,52.72
2022-09-12T09:52:52.670Z,51.51
2022-09-12T09:57:55.278Z,50.25
2022-09-12T10:02:59.461Z,47.10
2022-09-12T10:08:04.345Z,47.92
2022-09-12T10:13:10.095Z,48.20
2022-09-12T10:18:32.798Z,47.02
2022-09-12T10:23:37.573Z,47.18
2022-09-12T10:28:46.080Z,47.70
2022-09-12T10:33:53.937Z,46.75
2022-09-12T10:38:57.962Z,46.53
2022-09-12T10:44:15.737Z,46.57
2022-09-12T10:49:24.461Z,46.05
2022-09-12T10:54:28.311Z,46.73
2022-09-12T10:59:34.540Z,47.35
2022-09-12T11:04:56.284Z,47.92
2022-09-12T11:10:11.914Z,47.48
2022-09-12T11:15:29.841Z,47.63
2022-09-12T11:20:39.362Z,46.41
2022-09-12T11:25:48.249Z,45.79
2022-09-12T11:31:10.755Z,38.87
2022-09-12T11:36:32.250Z,33.96
2022-09-12T11:41:36.947Z,32.47
2022-09-12T11:46:40.750Z,30.33
2022-09-12T11:51:59.193Z,29.45
2022-09-12T11:57:04.516Z,31.92
2022-09-12T12:02:12.230Z,34.40
2022-09-12T12:07:15.893Z,36.96
2022-09-12T12:12:21.572Z,39.73
2022-09-12T12:17:25.713Z,39.80
2022-09-12T12:22:28.490Z,39.70
2022-09-12T12:27:50.060Z,40.13
2022-09-12T12:32:52.737Z,40.74
2022-09-12T12:37:55.979Z,41.83
2022-09-12T12:42:58.501Z,43.04
2022-09-12T12:48:08.785Z,42.23
2022-09-12T12:53:28.141Z,38.43
2022-09-12T12:58:34.729Z,34.08
2022-09-12T13:03:38.864Z,34.15
2022-09-12T13:08:45.229Z,34.71
2022-09-12T13:13:53.655Z,35.77
2022-09-12T13:18:57.228Z,37.02
2022-09-12T13:24:04.605Z,38.12
2022-09-12T13:29:10.258Z,39.40
2022-09-12T13:34:18.602Z,37.07
2022-09-12T13:39:26.982Z,33.44
2022-09-12T13:44:31.310Z,30.50
2022-09-12T13:49:35.939Z,28.12
2022-09-12T13:54:39.250Z,26.14
2022-09-12T13:59:42.941Z,28.06
2022-09-12T14:05:06.123Z,29.94
2022-09-12T14:10:14.568Z,31.84
2022-09-12T14:15:19.866Z,33.77
2022-09-12T14:20:23.637Z,34.77
2022-09-12T14:25:29.744Z,36.07
2022-09-12T14:30:36.750Z,37.49
2022-09-12T14:35:57.900Z,38.27
2022-09-12T14:41:02.598Z,36.89
2022-09-12T14:46:07.369Z,34.94
2022-09-12T14:51:19.204Z,35.52
2022-09-12T14:56:23.084Z,36.68
2022-09-12T15:01:26.099Z,34.30
2022-09-12T15:06:30.329Z,31.37
2022-09-12T15:11:34.544Z,29.17
2022-09-12T15:16:37.470Z,28.23
2022-09-12T15:21:40.296Z,27.46
2022-09-12T15:26:42.969Z,26.80
2022-09-12T15:31:47.410Z,26.98
2022-09-12T15:36:49.966Z,27.89
2022-09-12T15:41:52.805Z,27.79
2022-09-12T15:46:55.508Z,27.76
2022-09-12T15:51:59.051Z,27.37
2022-09-12T15:57:01.726Z,27.39
2022-09-12T16:02:04.353Z,27.76
2022-09-12T16:07:06.958Z,28.57
2022-09-12T16:12:09.771Z,31.34
2022-09-12T16:17:12.622Z,34.58
2022-09-12T16:22:15.323Z,37.21
2022-09-12T16:27:18.026Z,38.75
2022-09-12T16:32:21.029Z,40.82
2022-09-12T16:37:23.738Z,42.29
2022-09-12T16:42:26.330Z,43.60
2022-09-12T16:47:32.329Z,43.88
2022-09-12T16:52:35.124Z,45.17
2022-09-12T16:57:38.217Z,45.52
2022-09-12T17:02:40.945Z,46.25
2022-09-12T17:07:43.533Z,46.75
2022-09-12T17:12:46.211Z,47.30
2022-09-12T17:17:49.067Z,48.12
2022-09-12T17:22:51.650Z,49.08
2022-09-12T17:27:54.706Z,50.13
2022-09-12T17:32:57.291Z,51.41
2022-09-12T17:37:59.887Z,51.02
2022-09-12T17:43:03.124Z,51.19
2022-09-12T17:48:11.304Z,51.69
2022-09-12T17:53:14.570Z,52.35
2022-09-12T17:58:17.409Z,53.13
2022-09-12T18:03:23.515Z,53.60
2022-09-12T18:08:26.250Z,53.70
2022-09-12T18:13:28.802Z,53.94
2022-09-12T18:18:31.502Z,54.32
2022-09-12T18:23:35.083Z,54.79
2022-09-12T18:28:39.284Z,56.24
2022-09-12T18:33:42.416Z,56.87
2022-09-12T18:38:45.512Z,57.24
2022-09-12T18:43:48.853Z,57.52
2022-09-12T18:48:51.974Z,57.30
2022-09-12T18:53:56.527Z,57.63
2022-09-12T18:59:00.002Z,58.07
2022-09-12T19:04:05.774Z,58.64
2022-09-12T19:09:09.237Z,59.37
2022-09-12T19:14:11.825Z,60.17
2022-09-12T19:19:14.489Z,60.83
2022-09-12T19:24:17.373Z,61.48
2022-09-12T19:29:20.194Z,62.00
2022-09-12T19:34:23.301Z,72.16
2022-09-12T19:39:25.900Z,77.84
2022-09-12T19:44:29.944Z,69.29
2022-09-12T19:49:32.542Z,63.59
2022-09-12T19:54:35.125Z,59.50
2022-09-12T19:59:38.026Z,56.78
2022-09-12T20:04:40.829Z,60.25
2022-09-12T20:09:43.529Z,65.45
2022-09-12T20:14:46.276Z,66.20
2022-09-12T20:19:48.902Z,59.31
2022-09-12T20:24:51.638Z,57.53
2022-09-12T20:29:54.638Z,60.80
2022-09-12T20:34:57.231Z,68.15
2022-09-12T20:39:59.871Z,63.48
2022-09-12T20:45:02.857Z,58.26
2022-09-12T20:50:05.944Z,57.96
2022-09-12T20:55:09.362Z,60.49
2022-09-12T21:00:12.429Z,63.79
2022-09-12T21:05:15.061Z,69.12
2022-09-12T21:10:19.004Z,62.63
2022-09-12T21:15:21.597Z,59.42
2022-09-12T21:20:24.176Z,56.77
2022-09-12T21:25:27.913Z,58.88
2022-09-12T21:30:30.504Z,62.89
2022-09-12T21:35:36.885Z,69.95
2022-09-12T21:40:39.494Z,63.05
2022-09-12T21:45:42.240Z,57.93
2022-09-12T21:50:49.601Z,58.00
2022-09-12T21:55:52.302Z,61.62
2022-09-12T22:00:55.277Z,68.80
2022-09-12T22:05:59.095Z,62.16
2022-09-12T22:11:03.007Z,56.75
2022-09-12T22:16:07.361Z,58.95
2022-09-12T22:21:12.902Z,62.20
2022-09-12T22:26:15.671Z,68.89
2022-09-12T22:31:18.969Z,61.91
2022-09-12T22:36:21.577Z,56.51
2022-09-12T22:41:24.863Z,58.75
2022-09-12T22:46:27.775Z,61.51
2022-09-12T22:51:31.623Z,69.97
2022-09-12T22:56:34.378Z,63.74
2022-09-12T23:01:37.008Z,59.03
2022-09-12T23:06:39.609Z,57.50
2022-09-12T23:11:42.321Z,63.31
2022-09-12T23:16:44.918Z,67.93
2022-09-12T23:21:47.737Z,60.67
2022-09-12T23:26:50.419Z,56.76
2022-09-12T23:31:53.233Z,60.42
2022-09-12T23:36:56.532Z,67.62
2022-09-12T23:41:59.748Z,64.95
2022-09-12T23:47:03.665Z,60.23
2022-09-12T23:52:06.231Z,55.69
2022-09-12T23:57:09.175Z,58.47
